createdAt,value
2022-10-22T00:00:18.148Z,13.35
2022-10-22T00:02:45.384Z,9.55
2022-10-22T00:05:12.597Z,11.40
2022-10-22T00:07:39.881Z,12.00
2022-10-22T00:10:08.441Z,12.73
2022-10-22T00:12:35.868Z,10.10
2022-10-22T00:15:05.171Z,10.93
2022-10-22T00:17:32.272Z,9.10
2022-10-22T00:19:59.399Z,9.95
2022-10-22T00:22:26.513Z,11.35
2022-10-22T00:24:53.581Z,16.17
2022-10-22T00:27:20.656Z,12.32
2022-10-22T00:29:47.922Z,16.70
2022-10-22T00:32:15.441Z,13.23
2022-10-22T00:34:42.543Z,13.07
2022-10-22T00:37:09.595Z,15.43
2022-10-22T00:39:36.696Z,10.45
2022-10-22T00:42:03.889Z,9.10
2022-10-22T00:45:11.309Z,13.02
2022-10-22T00:48:01.906Z,11.68
2022-10-22T00:50:50.012Z,11.88
2022-10-22T00:53:22.684Z,12.50
2022-10-22T00:55:54.622Z,11.27
2022-10-22T00:58:27.435Z,10.68
2022-10-22T01:00:56.256Z,10.30
2022-10-22T01:03:23.653Z,10.63
2022-10-22T01:06:00.874Z,15.45
2022-10-22T01:09:21.556Z,11.27
2022-10-22T01:12:07.374Z,10.48
2022-10-22T01:14:58.477Z,11.20
2022-10-22T01:17:39.678Z,11.40
2022-10-22T01:20:51.436Z,13.52
2022-10-22T01:23:55.045Z,10.80
2022-10-22T01:27:15.349Z,12.52
2022-10-22T01:29:50.774Z,11.88
2022-10-22T01:32:22.588Z,14.00
2022-10-22T01:34:57.501Z,11.38
2022-10-22T01:37:28.611Z,15.52
2022-10-22T01:40:01.643Z,14.07
2022-10-22T01:42:29.015Z,14.00
2022-10-22T01:44:56.086Z,13.68
2022-10-22T01:47:54.046Z,13.68
2022-10-22T01:50:40.934Z,17.48
2022-10-22T01:53:34.710Z,15.40
2022-10-22T01:56:20.636Z,13.05
2022-10-22T01:58:56.614Z,13.45
2022-10-22T02:02:08.617Z,13.68
2022-10-22T02:05:03.840Z,13.88
2022-10-22T02:07:38.120Z,13.13
2022-10-22T02:10:07.636Z,11.63
2022-10-22T02:12:36.105Z,10.38
2022-10-22T02:15:04.890Z,12.02
2022-10-22T02:17:35.961Z,12.82
2022-10-22T02:20:22.262Z,22.55
2022-10-22T02:25:17.288Z,13.98
2022-10-22T02:27:54.434Z,17.75
2022-10-22T02:30:24.129Z,11.82
2022-10-22T02:33:10.230Z,16.70
2022-10-22T02:35:41.327Z,20.50
2022-10-22T02:38:09.678Z,13.90
2022-10-22T02:40:37.232Z,12.52
2022-10-22T02:43:06.449Z,18.08
2022-10-22T02:45:34.794Z,15.68
2022-10-22T02:48:02.442Z,15.68
2022-10-22T02:50:29.578Z,14.18
2022-10-22T02:52:56.685Z,13.63
2022-10-22T02:55:23.850Z,10.65
2022-10-22T02:57:50.944Z,14.20
2022-10-22T03:00:18.201Z,17.80
2022-10-22T03:02:45.354Z,11.50
2022-10-22T03:05:12.568Z,14.07
2022-10-22T03:07:39.922Z,14.40
2022-10-22T03:10:07.907Z,13.35
2022-10-22T03:12:35.003Z,13.90
2022-10-22T03:15:02.137Z,13.80
2022-10-22T03:17:29.211Z,11.75
2022-10-22T03:19:56.261Z,14.82
2022-10-22T03:22:30.741Z,12.60
2022-10-22T03:25:02.914Z,15.32
2022-10-22T03:27:30.444Z,11.57
2022-10-22T03:29:58.884Z,11.50
2022-10-22T03:32:25.933Z,14.68
2022-10-22T03:34:53.262Z,11.88
2022-10-22T03:37:20.847Z,13.27
2022-10-22T03:39:48.067Z,18.10
2022-10-22T03:42:16.322Z,11.38
2022-10-22T03:44:43.743Z,16.05
2022-10-22T03:47:10.803Z,14.88
2022-10-22T03:49:37.869Z,13.05
2022-10-22T03:52:13.558Z,13.35
2022-10-22T03:54:42.579Z,16.27
2022-10-22T03:57:11.072Z,12.52
2022-10-22T03:59:44.126Z,14.48
2022-10-22T04:02:13.137Z,14.57
2022-10-22T04:04:40.443Z,18.15
2022-10-22T04:07:08.884Z,14.77
2022-10-22T04:09:36.943Z,15.93
2022-10-22T04:12:09.545Z,14.65
2022-10-22T04:14:36.663Z,13.95
2022-10-22T04:17:03.716Z,17.33
2022-10-22T04:19:30.808Z,12.95
2022-10-22T04:22:00.967Z,12.63
2022-10-22T04:24:29.983Z,15.93
2022-10-22T04:26:57.265Z,13.55
2022-10-22T04:29:25.438Z,19.13
2022-10-22T04:31:52.896Z,15.50
2022-10-22T04:34:19.951Z,15.00
2022-10-22T04:36:47.294Z,13.15
2022-10-22T04:39:15.273Z,14.38
2022-10-22T04:41:42.339Z,14.27
2022-10-22T04:44:12.342Z,14.65
2022-10-22T04:46:43.848Z,21.23
2022-10-22T04:49:10.857Z,14.43
2022-10-22T04:51:37.929Z,16.15
2022-10-22T04:54:05.108Z,14.40
2022-10-22T04:56:32.948Z,14.82
2022-10-22T04:59:04.488Z,15.93
2022-10-22T05:01:39.892Z,17.45
2022-10-22T05:04:14.819Z,14.38
2022-10-22T05:06:42.439Z,17.25
2022-10-22T05:09:17.455Z,18.27
2022-10-22T05:11:48.870Z,18.00
2022-10-22T05:14:25.104Z,20.42
2022-10-22T05:16:52.725Z,15.77
2022-10-22T05:19:31.150Z,20.40
2022-10-22T05:22:01.701Z,20.27
2022-10-22T05:24:30.954Z,17.88
2022-10-22T05:27:00.180Z,17.95
2022-10-22T05:29:28.039Z,19.67
2022-10-22T05:31:55.401Z,16.20
2022-10-22T05:34:22.531Z,16.90
2022-10-22T05:36:49.788Z,17.85
2022-10-22T05:39:16.821Z,15.30
2022-10-22T05:41:43.902Z,18.00
2022-10-22T05:44:12.973Z,19.10
2022-10-22T05:46:40.529Z,24.02
2022-10-22T05:49:08.214Z,18.10
2022-10-22T05:51:37.457Z,24.80
2022-10-22T05:54:08.815Z,22.42
2022-10-22T05:56:37.494Z,23.25
2022-10-22T05:59:05.229Z,20.90
2022-10-22T06:01:37.874Z,19.23
2022-10-22T06:04:10.192Z,15.45
2022-10-22T06:06:45.129Z,19.38
2022-10-22T06:09:34.659Z,16.95
2022-10-22T06:12:02.541Z,16.45
2022-10-22T06:14:32.665Z,17.63
2022-10-22T06:17:02.020Z,16.83
2022-10-22T06:19:31.224Z,15.68
2022-10-22T06:21:58.528Z,16.30
2022-10-22T06:24:25.658Z,21.10
2022-10-22T06:26:53.399Z,17.08
2022-10-22T06:29:20.835Z,17.40
2022-10-22T06:31:48.877Z,15.40
2022-10-22T06:34:18.915Z,21.13
2022-10-22T06:36:47.524Z,14.50
2022-10-22T06:39:17.422Z,22.40
2022-10-22T06:41:44.816Z,18.33
2022-10-22T06:44:17.741Z,15.35
2022-10-22T06:46:45.052Z,17.80
2022-10-22T06:49:15.908Z,13.93
2022-10-22T06:51:43.270Z,14.93
2022-10-22T06:54:11.776Z,19.15
2022-10-22T06:56:38.825Z,22.15
2022-10-22T06:59:05.940Z,18.75
2022-10-22T07:01:35.560Z,12.40
2022-10-22T07:04:03.674Z,16.33
2022-10-22T07:06:31.358Z,17.10
2022-10-22T07:08:59.659Z,19.70
2022-10-22T07:11:31.586Z,17.77
2022-10-22T07:14:00.044Z,17.70
2022-10-22T07:16:31.098Z,20.75
2022-10-22T07:19:00.875Z,18.00
2022-10-22T07:21:29.109Z,22.05
2022-10-22T07:23:56.677Z,19.20
2022-10-22T07:26:25.495Z,16.20
2022-10-22T07:28:52.744Z,20.83
2022-10-22T07:31:20.042Z,16.88
2022-10-22T07:33:47.279Z,19.05
2022-10-22T07:36:19.990Z,14.38
2022-10-22T07:38:50.036Z,20.75
2022-10-22T07:41:17.673Z,14.82
2022-10-22T07:43:45.001Z,18.50
2022-10-22T07:46:12.562Z,19.55
2022-10-22T07:48:39.683Z,14.43
2022-10-22T07:51:07.634Z,19.27
2022-10-22T07:53:34.940Z,18.00
2022-10-22T07:56:02.231Z,22.02
2022-10-22T07:58:29.639Z,23.45
2022-10-22T08:01:00.977Z,20.92
2022-10-22T08:03:29.805Z,21.48
2022-10-22T08:05:56.971Z,17.65
2022-10-22T08:08:27.163Z,20.55
2022-10-22T08:10:59.726Z,15.05
2022-10-22T08:13:27.675Z,16.65
2022-10-22T08:15:57.429Z,21.75
2022-10-22T08:18:25.338Z,20.13
2022-10-22T08:20:53.005Z,15.25
2022-10-22T08:23:24.405Z,21.23
2022-10-22T08:25:54.676Z,22.83
2022-10-22T08:28:22.379Z,23.27
2022-10-22T08:30:49.724Z,28.13
2022-10-22T08:33:16.906Z,17.13
2022-10-22T08:35:49.783Z,16.55
2022-10-22T08:38:18.349Z,15.80
2022-10-22T08:40:52.209Z,27.65
2022-10-22T08:43:56.990Z,20.85
2022-10-22T08:47:00.685Z,20.60
2022-10-22T08:49:39.726Z,15.07
2022-10-22T08:52:16.173Z,24.45
2022-10-22T08:54:55.688Z,18.67
2022-10-22T08:58:01.049Z,19.77
2022-10-22T09:00:46.147Z,18.80
2022-10-22T09:03:43.897Z,17.42
2022-10-22T09:06:27.335Z,15.18
2022-10-22T09:08:57.113Z,21.60
2022-10-22T09:11:32.935Z,23.27
2022-10-22T09:17:09.851Z,20.70
2022-10-22T09:19:49.423Z,19.95
2022-10-22T09:22:19.479Z,22.90
2022-10-22T09:24:52.954Z,26.20
2022-10-22T09:27:26.096Z,30.38
2022-10-22T09:29:53.158Z,19.00
2022-10-22T09:32:20.591Z,25.13
2022-10-22T09:34:50.050Z,29.42
2022-10-22T09:37:20.178Z,24.27
2022-10-22T09:39:52.387Z,22.40
2022-10-22T09:42:21.353Z,24.42
2022-10-22T09:44:59.730Z,27.75
2022-10-22T09:47:43.456Z,25.50
2022-10-22T09:50:19.349Z,25.25
2022-10-22T09:53:25.504Z,23.90
2022-10-22T09:55:57.805Z,26.73
2022-10-22T09:58:25.332Z,22.52
2022-10-22T10:01:00.100Z,27.42
2022-10-22T10:03:31.629Z,26.25
2022-10-22T10:06:04.789Z,27.42
2022-10-22T10:08:33.616Z,23.27
2022-10-22T10:11:10.733Z,28.25
2022-10-22T10:13:48.121Z,31.33
2022-10-22T10:16:45.230Z,25.17
2022-10-22T10:19:43.266Z,24.40
2022-10-22T10:22:51.338Z,25.10
2022-10-22T10:25:38.958Z,29.17
2022-10-22T10:28:51.501Z,24.70
2022-10-22T10:31:50.113Z,23.48
2022-10-22T10:34:38.861Z,27.08
2022-10-22T10:37:26.394Z,28.90
2022-10-22T10:40:21.776Z,26.83
2022-10-22T10:43:11.000Z,25.67
2022-10-22T10:46:08.098Z,25.02
2022-10-22T10:48:51.124Z,27.63
2022-10-22T10:51:39.459Z,26.17
2022-10-22T10:54:41.047Z,26.42
2022-10-22T10:57:31.910Z,29.08
2022-10-22T11:00:17.862Z,29.83
2022-10-22T11:03:09.028Z,28.63
2022-10-22T11:06:03.557Z,33.35
2022-10-22T11:08:32.349Z,28.02
2022-10-22T11:11:47.450Z,24.75
2022-10-22T11:14:25.313Z,29.67
2022-10-22T11:17:11.437Z,33.83
2022-10-22T11:19:51.508Z,27.10
2022-10-22T11:22:33.700Z,30.95
2022-10-22T11:25:13.155Z,26.55
2022-10-22T11:28:04.509Z,30.67
2022-10-22T11:30:37.099Z,30.45
2022-10-22T11:33:12.825Z,38.60
2022-10-22T11:38:16.630Z,38.08
2022-10-22T11:41:01.431Z,33.55
2022-10-22T11:43:51.316Z,31.08
2022-10-22T11:46:18.517Z,34.83
2022-10-22T11:49:09.650Z,31.73
2022-10-22T11:51:41.348Z,32.72
2022-10-22T11:54:37.421Z,31.73
2022-10-22T11:57:16.318Z,31.58
2022-10-22T12:00:00.275Z,32.65
2022-10-22T12:03:23.564Z,30.85
2022-10-22T12:06:12.130Z,25.15
2022-10-22T12:08:48.519Z,33.00
2022-10-22T12:11:41.442Z,27.45
2022-10-22T12:14:32.451Z,25.40
2022-10-22T12:17:01.883Z,28.35
2022-10-22T12:19:44.709Z,31.35
2022-10-22T12:22:32.792Z,30.58
2022-10-22T12:25:16.841Z,37.80
2022-10-22T12:27:44.232Z,31.88
2022-10-22T12:30:30.856Z,30.88
2022-10-22T12:33:01.548Z,26.85
2022-10-22T12:35:53.030Z,38.00
2022-10-22T12:38:25.717Z,30.35
2022-10-22T12:40:56.975Z,28.38
2022-10-22T12:43:30.272Z,29.50
2022-10-22T12:45:59.071Z,33.25
2022-10-22T12:48:37.349Z,28.92
2022-10-22T12:51:08.158Z,26.20
2022-10-22T12:53:45.678Z,31.65
2022-10-22T12:56:25.725Z,27.05
2022-10-22T12:59:01.735Z,29.60
2022-10-22T13:01:36.559Z,30.38
2022-10-22T13:04:26.911Z,32.00
2022-10-22T13:07:12.388Z,30.02
2022-10-22T13:10:00.827Z,25.65
2022-10-22T13:12:36.080Z,31.80
2022-10-22T13:15:30.685Z,24.27
2022-10-22T13:18:18.910Z,26.65
2022-10-22T13:21:03.213Z,25.45
2022-10-22T13:23:33.874Z,25.45
2022-10-22T13:26:14.282Z,29.95
2022-10-22T13:28:42.765Z,26.63
2022-10-22T13:31:21.932Z,29.52
2022-10-22T13:34:00.048Z,30.25
2022-10-22T13:36:28.975Z,27.73
2022-10-22T13:38:56.081Z,29.05
2022-10-22T13:41:32.427Z,30.35
2022-10-22T13:43:59.921Z,29.20
2022-10-22T13:46:27.467Z,32.10
2022-10-22T13:48:56.412Z,31.05
2022-10-22T13:51:35.454Z,29.80
2022-10-22T13:54:04.701Z,33.00
2022-10-22T13:56:31.880Z,36.85
2022-10-22T13:58:58.943Z,37.60
2022-10-22T14:01:27.743Z,39.45
2022-10-22T14:03:58.802Z,45.42
2022-10-22T14:06:31.633Z,42.88
2022-10-22T14:09:03.812Z,43.15
2022-10-22T14:11:32.671Z,38.60
2022-10-22T14:13:59.975Z,34.47
2022-10-22T14:16:28.876Z,36.13
2022-10-22T14:18:56.669Z,35.60
2022-10-22T14:21:23.878Z,33.05
2022-10-22T14:23:52.771Z,31.98
2022-10-22T14:26:31.324Z,33.03
2022-10-22T14:29:09.192Z,31.73
2022-10-22T14:34:15.759Z,38.38
2022-10-22T14:36:46.411Z,30.83
2022-10-22T14:39:14.476Z,29.70
2022-10-22T14:41:42.582Z,33.70
2022-10-22T14:44:14.057Z,35.63
2022-10-22T14:46:44.505Z,39.15
2022-10-22T14:49:12.196Z,34.70
2022-10-22T14:51:39.668Z,29.92
2022-10-22T14:54:06.776Z,30.33
2022-10-22T14:56:34.069Z,36.83
2022-10-22T14:59:01.279Z,36.22
2022-10-22T15:01:28.602Z,32.55
2022-10-22T15:03:55.853Z,40.28
2022-10-22T15:06:22.929Z,32.75
2022-10-22T15:08:50.513Z,33.00
2022-10-22T15:11:17.744Z,32.80
2022-10-22T15:13:44.961Z,35.00
2022-10-22T15:16:15.499Z,37.95
2022-10-22T15:18:42.757Z,36.78
2022-10-22T15:21:20.617Z,34.25
2022-10-22T15:23:48.445Z,33.58
2022-10-22T15:26:16.571Z,31.60
2022-10-22T15:28:44.199Z,30.02
2022-10-22T15:31:14.633Z,36.63
2022-10-22T15:33:43.427Z,34.85
2022-10-22T15:36:16.740Z,38.22
2022-10-22T15:38:44.135Z,37.83
2022-10-22T15:41:12.954Z,29.77
2022-10-22T15:43:40.250Z,37.10
2022-10-22T15:46:19.545Z,31.90
2022-10-22T15:48:46.858Z,34.28
2022-10-22T15:51:19.823Z,35.72
2022-10-22T15:53:53.756Z,34.20
2022-10-22T15:56:21.818Z,31.67
2022-10-22T15:58:54.923Z,35.05
2022-10-22T16:01:22.318Z,38.03
2022-10-22T16:04:00.225Z,42.63
2022-10-22T16:06:36.337Z,39.42
2022-10-22T16:09:11.756Z,44.22
2022-10-22T16:11:40.024Z,40.03
2022-10-22T16:14:10.048Z,43.75
2022-10-22T16:16:39.863Z,38.33
2022-10-22T16:19:07.376Z,34.35
2022-10-22T16:21:34.517Z,29.58
2022-10-22T16:24:06.081Z,28.85
2022-10-22T16:26:34.685Z,24.33
2022-10-22T16:29:02.309Z,18.15
2022-10-22T16:31:29.510Z,17.67
2022-10-22T16:33:57.885Z,17.50
2022-10-22T16:36:25.627Z,10.05
2022-10-22T16:38:52.787Z,6.13
2022-10-22T16:41:23.568Z,4.22
2022-10-22T16:43:56.352Z,4.63
2022-10-22T16:46:24.284Z,3.45
2022-10-22T16:48:53.100Z,3.25
2022-10-22T16:51:24.871Z,5.05
2022-10-22T16:53:53.829Z,4.57
2022-10-22T16:56:21.466Z,4.95
2022-10-22T16:58:55.696Z,5.03
2022-10-22T17:01:26.882Z,4.55
2022-10-22T17:03:55.304Z,5.80
2022-10-22T17:06:25.336Z,4.75
2022-10-22T17:08:53.584Z,5.35
2022-10-22T17:11:23.902Z,6.70
2022-10-22T17:13:54.913Z,5.65
2022-10-22T17:16:25.459Z,7.95
2022-10-22T17:18:55.407Z,4.28
2022-10-22T17:21:24.352Z,6.80
2022-10-22T17:23:57.370Z,4.40
2022-10-22T17:26:29.281Z,6.00
2022-10-22T17:28:57.155Z,3.13
2022-10-22T17:31:28.114Z,4.50
2022-10-22T17:33:57.180Z,3.97
2022-10-22T17:36:30.476Z,3.78
2022-10-22T17:39:04.371Z,3.45
2022-10-22T17:41:35.708Z,4.20
2022-10-22T17:44:07.913Z,3.05
2022-10-22T17:46:35.782Z,6.47
2022-10-22T17:49:08.340Z,3.95
2022-10-22T17:51:35.971Z,6.50
2022-10-22T17:54:07.285Z,4.57
2022-10-22T17:56:38.179Z,5.00
2022-10-22T17:59:05.960Z,3.20
2022-10-22T18:01:40.735Z,4.35
2022-10-22T18:04:11.745Z,4.03
2022-10-22T18:06:39.592Z,4.07
2022-10-22T18:09:10.658Z,4.15
2022-10-22T18:11:39.745Z,3.70
2022-10-22T18:14:08.550Z,3.85
2022-10-22T18:16:36.965Z,3.90
2022-10-22T18:19:05.880Z,5.65
2022-10-22T18:21:34.418Z,4.78
2022-10-22T18:24:02.465Z,4.57
2022-10-22T18:26:30.245Z,5.05
2022-10-22T18:28:59.680Z,5.13
2022-10-22T18:31:28.561Z,5.50
2022-10-22T18:33:57.713Z,3.35
2022-10-22T18:36:28.224Z,5.25
2022-10-22T18:39:02.056Z,3.00
2022-10-22T18:41:32.291Z,3.63
2022-10-22T18:44:04.167Z,5.25
2022-10-22T18:46:35.356Z,4.05
2022-10-22T18:49:03.271Z,5.70
2022-10-22T18:51:32.088Z,3.30
2022-10-22T18:54:22.259Z,3.72
2022-10-22T18:57:02.543Z,6.65
2022-10-22T18:59:34.237Z,7.70
2022-10-22T19:02:02.081Z,3.35
2022-10-22T19:04:37.321Z,4.20
2022-10-22T19:09:42.692Z,7.05
2022-10-22T19:12:10.079Z,5.40
2022-10-22T19:14:37.822Z,4.70
2022-10-22T19:17:05.696Z,3.13
2022-10-22T19:19:34.715Z,5.15
2022-10-22T19:22:02.664Z,5.60
2022-10-22T19:24:29.890Z,4.35
2022-10-22T19:26:57.543Z,3.72
2022-10-22T19:29:25.203Z,3.40
2022-10-22T19:31:54.593Z,3.58
2022-10-22T19:34:22.615Z,5.13
2022-10-22T19:36:52.658Z,3.75
2022-10-22T19:39:21.351Z,4.95
2022-10-22T19:41:49.457Z,4.00
2022-10-22T19:44:17.869Z,5.28
2022-10-22T19:46:45.514Z,3.15
2022-10-22T19:49:16.483Z,6.28
2022-10-22T19:51:47.210Z,3.42
2022-10-22T19:54:18.687Z,5.78
2022-10-22T19:56:47.887Z,5.55
2022-10-22T19:59:17.598Z,4.82
2022-10-22T20:01:46.867Z,3.63
2022-10-22T20:04:17.095Z,3.03
2022-10-22T20:06:45.253Z,8.90
2022-10-22T20:09:13.942Z,3.83
2022-10-22T20:11:42.545Z,8.23
2022-10-22T20:14:10.454Z,6.03
2022-10-22T20:16:39.228Z,5.30
2022-10-22T20:19:10.943Z,5.97
2022-10-22T20:21:38.609Z,4.10
2022-10-22T20:24:06.360Z,6.80
2022-10-22T20:26:34.144Z,4.60
2022-10-22T20:29:01.615Z,5.05
2022-10-22T20:31:30.385Z,4.45
2022-10-22T20:34:01.456Z,3.45
2022-10-22T20:36:32.762Z,5.93
2022-10-22T20:39:05.905Z,4.57
2022-10-22T20:41:34.732Z,5.55
2022-10-22T20:44:02.760Z,6.25
2022-10-22T20:46:33.178Z,4.15
2022-10-22T20:49:08.023Z,4.00
2022-10-22T20:51:39.404Z,4.00
2022-10-22T20:54:08.609Z,3.90
2022-10-22T20:56:40.653Z,5.70
2022-10-22T20:59:11.065Z,3.67
2022-10-22T21:01:51.183Z,5.25
2022-10-22T21:04:21.545Z,4.75
2022-10-22T21:06:50.288Z,4.50
2022-10-22T21:09:17.485Z,6.22
2022-10-22T21:11:45.360Z,4.80
2022-10-22T21:14:15.385Z,5.18
2022-10-22T21:16:51.638Z,4.35
2022-10-22T21:19:20.558Z,4.90
2022-10-22T21:22:06.378Z,4.97
2022-10-22T21:24:33.432Z,3.67
2022-10-22T21:27:00.495Z,8.60
2022-10-22T21:29:27.669Z,4.53
2022-10-22T21:31:54.835Z,5.18
2022-10-22T21:34:21.946Z,4.57
2022-10-22T21:36:49.021Z,4.60
2022-10-22T21:39:16.074Z,3.83
2022-10-22T21:41:43.108Z,2.47
2022-10-22T21:44:10.185Z,5.88
2022-10-22T21:46:37.760Z,2.90
2022-10-22T21:49:05.264Z,3.88
2022-10-22T21:51:35.819Z,5.65
2022-10-22T21:54:02.956Z,3.22
2022-10-22T21:56:34.750Z,3.15
2022-10-22T21:59:04.136Z,4.80
2022-10-22T22:01:31.503Z,9.00
2022-10-22T22:04:00.290Z,4.38
2022-10-22T22:06:33.021Z,5.32
2022-10-22T22:09:01.967Z,5.25
2022-10-22T22:11:29.795Z,6.38
2022-10-22T22:13:58.468Z,4.18
2022-10-22T22:16:32.229Z,4.57
2022-10-22T22:21:31.542Z,6.68
2022-10-22T22:23:58.991Z,4.65
2022-10-22T22:26:30.087Z,5.53
2022-10-22T22:28:59.665Z,6.38
2022-10-22T22:31:30.699Z,5.32
2022-10-22T22:34:00.721Z,6.43
2022-10-22T22:36:28.326Z,6.35
2022-10-22T22:38:56.679Z,6.30
2022-10-22T22:41:23.826Z,7.18
2022-10-22T22:43:51.196Z,5.07
2022-10-22T22:46:18.355Z,6.18
2022-10-22T22:48:49.330Z,6.15
2022-10-22T22:51:17.143Z,14.63
2022-10-22T22:53:44.321Z,5.70
2022-10-22T22:56:21.558Z,10.25
2022-10-22T22:58:49.406Z,4.22
2022-10-22T23:01:34.169Z,5.03
2022-10-22T23:04:10.631Z,6.63
2022-10-22T23:06:38.111Z,6.18
2022-10-22T23:09:08.159Z,7.75
2022-10-22T23:11:35.967Z,5.85
2022-10-22T23:14:06.781Z,5.97
2022-10-22T23:16:37.637Z,5.18
2022-10-22T23:19:05.692Z,4.40
2022-10-22T23:21:36.437Z,6.15
2022-10-22T23:24:09.209Z,6.10
2022-10-22T23:26:41.378Z,8.95
2022-10-22T23:29:17.199Z,7.18
2022-10-22T23:34:16.970Z,4.90
2022-10-22T23:36:44.194Z,5.63
2022-10-22T23:39:15.596Z,6.22
2022-10-22T23:41:43.146Z,8.00
2022-10-22T23:44:11.387Z,11.82
2022-10-22T23:46:38.797Z,9.20
2022-10-22T23:49:08.356Z,9.20
2022-10-22T23:51:35.956Z,8.63
2022-10-22T23:54:06.840Z,9.68
2022-10-22T23:56:34.569Z,6.10
2022-10-22T23:59:02.243Z,6.97
